createdAt,value
2022-10-21T00:00:19.224Z,8.57
2022-10-21T00:05:32.611Z,7.93
2022-10-21T00:10:38.499Z,8.17
2022-10-21T00:15:41.249Z,8.23
2022-10-21T00:20:43.951Z,9.10
2022-10-21T00:25:46.704Z,8.13
2022-10-21T00:31:07.070Z,8.40
2022-10-21T00:36:28.491Z,8.53
2022-10-21T00:47:34.420Z,8.93
2022-10-21T00:52:53.611Z,8.20
2022-10-21T00:58:11.476Z,8.67
2022-10-21T01:03:49.824Z,8.60
2022-10-21T01:18:28.105Z,10.83
2022-10-21T01:23:46.964Z,9.03
2022-10-21T01:29:19.361Z,8.27
2022-10-21T01:34:37.481Z,9.03
2022-10-21T01:39:48.253Z,8.00
2022-10-21T01:45:23.981Z,8.23
2022-10-21T01:50:30.763Z,8.47
2022-10-21T01:55:33.863Z,8.53
2022-10-21T02:00:39.456Z,8.73
2022-10-21T02:06:04.331Z,7.97
2022-10-21T02:11:25.219Z,9.07
2022-10-21T02:16:46.552Z,8.57
2022-10-21T02:22:12.297Z,8.97
2022-10-21T02:27:35.454Z,8.03
2022-10-21T02:33:06.825Z,8.67
2022-10-21T02:38:33.117Z,8.90
2022-10-21T02:43:56.385Z,8.60
2022-10-21T02:49:07.968Z,9.57
2022-10-21T02:54:17.246Z,9.40
2022-10-21T02:59:22.747Z,9.63
2022-10-21T03:04:50.204Z,10.10
2022-10-21T03:09:55.046Z,9.20
2022-10-21T03:14:57.830Z,9.53
2022-10-21T03:20:00.618Z,9.37
2022-10-21T03:25:06.249Z,9.30
2022-10-21T03:30:09.915Z,9.47
2022-10-21T03:35:12.713Z,10.17
2022-10-21T03:40:15.732Z,9.57
2022-10-21T03:45:18.652Z,9.07
2022-10-21T03:50:25.989Z,9.17
2022-10-21T03:55:29.835Z,8.73
2022-10-21T04:00:32.713Z,9.20
2022-10-21T04:05:53.063Z,10.33
2022-10-21T04:11:07.449Z,10.00
2022-10-21T04:16:32.210Z,8.70
2022-10-21T04:21:56.933Z,9.73
2022-10-21T04:27:31.316Z,9.13
2022-10-21T04:32:52.792Z,9.07
2022-10-21T04:38:06.829Z,9.07
2022-10-21T04:43:40.514Z,8.97
2022-10-21T04:48:54.152Z,9.17
2022-10-21T04:54:03.303Z,9.00
2022-10-21T04:59:15.233Z,9.43
2022-10-21T05:04:39.975Z,9.07
2022-10-21T05:09:43.223Z,9.47
2022-10-21T05:14:45.937Z,9.27
2022-10-21T05:19:48.638Z,9.83
2022-10-21T05:24:51.412Z,9.83
2022-10-21T05:29:54.621Z,9.57
2022-10-21T05:34:57.503Z,11.43
2022-10-21T05:40:00.304Z,11.30
2022-10-21T05:45:03.190Z,11.37
2022-10-21T05:50:06.411Z,12.07
2022-10-21T05:55:10.030Z,10.93
2022-10-21T06:00:14.038Z,12.33
2022-10-21T06:05:33.007Z,12.17
2022-10-21T06:10:42.476Z,11.03
2022-10-21T06:15:48.757Z,11.23
2022-10-21T06:21:26.721Z,10.77
2022-10-21T06:26:44.423Z,10.60
2022-10-21T06:32:04.677Z,10.50
2022-10-21T06:37:13.293Z,10.30
2022-10-21T06:42:33.898Z,9.67
2022-10-21T06:47:57.516Z,9.83
2022-10-21T06:53:14.181Z,9.40
2022-10-21T06:58:41.044Z,8.50
2022-10-21T07:04:08.207Z,8.87
2022-10-21T07:09:17.521Z,9.40
2022-10-21T07:14:29.462Z,9.00
2022-10-21T07:19:33.441Z,8.47
2022-10-21T07:24:36.754Z,8.37
2022-10-21T07:29:39.506Z,7.77
2022-10-21T07:34:42.366Z,8.67
2022-10-21T07:39:45.135Z,8.20
2022-10-21T07:44:57.382Z,7.87
2022-10-21T07:50:00.136Z,7.93
2022-10-21T07:55:03.007Z,8.50
2022-10-21T08:00:07.217Z,8.23
2022-10-21T08:05:15.344Z,8.03
2022-10-21T08:10:18.688Z,8.80
2022-10-21T08:15:21.456Z,8.27
2022-10-21T08:20:25.708Z,7.83
2022-10-21T08:25:30.184Z,7.90
2022-10-21T08:31:12.927Z,7.40
2022-10-21T08:37:05.264Z,8.00
2022-10-21T08:42:33.189Z,7.90
2022-10-21T08:48:03.467Z,7.30
2022-10-21T08:53:40.999Z,6.73
2022-10-21T08:59:04.323Z,6.33
2022-10-21T09:04:55.679Z,6.63
2022-10-21T09:10:09.073Z,6.83
2022-10-21T09:15:58.873Z,6.33
2022-10-21T09:21:47.486Z,6.43
2022-10-21T09:27:04.968Z,6.47
2022-10-21T09:32:54.358Z,6.43
2022-10-21T09:38:48.779Z,6.80
2022-10-21T09:44:03.576Z,6.53
2022-10-21T09:50:02.138Z,6.90
2022-10-21T09:54:59.942Z,6.83
2022-10-21T10:00:06.124Z,6.47
2022-10-21T10:06:01.399Z,7.20
2022-10-21T10:11:29.407Z,6.87
2022-10-21T10:16:53.306Z,6.80
2022-10-21T10:22:17.122Z,6.70
2022-10-21T10:27:36.627Z,7.20
2022-10-21T10:32:59.904Z,7.00
2022-10-21T10:38:31.977Z,7.30
2022-10-21T10:44:01.493Z,6.57
2022-10-21T10:49:23.200Z,6.33
2022-10-21T10:54:28.379Z,6.20
2022-10-21T10:59:52.422Z,6.50
2022-10-21T11:05:52.619Z,6.87
2022-10-21T11:11:42.642Z,6.47
2022-10-21T11:17:16.786Z,6.57
2022-10-21T11:22:44.203Z,6.83
2022-10-21T11:28:39.074Z,5.83
2022-10-21T11:34:13.622Z,5.47
2022-10-21T11:39:41.379Z,5.90
2022-10-21T11:44:56.042Z,5.27
2022-10-21T11:50:26.145Z,5.30
2022-10-21T11:55:41.188Z,5.73
2022-10-21T12:00:58.297Z,6.00
2022-10-21T12:06:48.392Z,5.90
2022-10-21T12:12:31.481Z,5.50
2022-10-21T12:17:58.048Z,5.17
2022-10-21T12:23:27.887Z,6.53
2022-10-21T12:29:00.105Z,5.77
2022-10-21T12:34:15.075Z,6.40
2022-10-21T12:39:49.361Z,6.33
2022-10-21T12:44:53.431Z,7.70
2022-10-21T12:50:14.223Z,8.20
2022-10-21T12:55:27.255Z,8.77
2022-10-21T13:00:29.937Z,11.00
2022-10-21T13:05:55.676Z,10.10
2022-10-21T13:11:10.501Z,11.10
2022-10-21T13:16:19.991Z,10.20
2022-10-21T13:21:53.083Z,10.83
2022-10-21T13:27:55.434Z,11.20
2022-10-21T13:33:22.550Z,12.37
2022-10-21T13:38:59.810Z,11.60
2022-10-21T13:44:28.573Z,12.17
2022-10-21T13:49:34.359Z,12.03
2022-10-21T13:54:37.179Z,12.30
2022-10-21T13:59:39.944Z,12.17
2022-10-21T14:04:56.354Z,12.50
2022-10-21T14:10:00.150Z,13.20
2022-10-21T14:15:09.033Z,12.73
2022-10-21T14:20:33.780Z,13.63
2022-10-21T14:25:36.731Z,13.33
2022-10-21T14:30:40.207Z,13.27
2022-10-21T14:35:43.250Z,13.93
2022-10-21T14:47:05.884Z,13.00
2022-10-21T14:52:52.344Z,13.20
2022-10-21T14:58:10.442Z,13.37
2022-10-21T15:03:44.905Z,14.10
2022-10-21T15:09:01.040Z,14.53
2022-10-21T15:14:18.290Z,14.40
2022-10-21T15:19:26.139Z,14.23
2022-10-21T15:24:42.052Z,14.53
2022-10-21T15:29:47.892Z,14.93
2022-10-21T15:34:52.015Z,14.73
2022-10-21T15:39:54.710Z,14.90
2022-10-21T15:44:57.479Z,14.80
2022-10-21T15:50:00.228Z,14.50
2022-10-21T15:55:02.943Z,13.90
2022-10-21T16:00:19.246Z,14.30
2022-10-21T16:05:33.908Z,14.37
2022-10-21T16:10:51.986Z,15.33
2022-10-21T16:16:20.741Z,14.33
2022-10-21T16:21:25.420Z,14.10
2022-10-21T16:26:47.041Z,13.87
2022-10-21T16:32:06.143Z,14.40
2022-10-21T16:37:40.519Z,13.83
2022-10-21T16:43:06.644Z,13.40
2022-10-21T16:48:31.535Z,13.93
2022-10-21T16:53:50.689Z,13.23
2022-10-21T16:58:58.671Z,11.93
2022-10-21T17:04:20.380Z,9.70
2022-10-21T17:09:27.413Z,7.83
2022-10-21T17:14:30.141Z,6.67
2022-10-21T17:19:32.917Z,6.53
2022-10-21T17:24:35.617Z,7.93
2022-10-21T17:29:38.349Z,7.30
2022-10-21T17:34:41.242Z,8.20
2022-10-21T17:39:44.585Z,8.33
2022-10-21T17:44:47.368Z,7.30
2022-10-21T17:49:50.117Z,7.07
2022-10-21T17:54:52.860Z,7.93
2022-10-21T17:59:56.242Z,7.07
2022-10-21T18:05:04.097Z,8.23
2022-10-21T18:10:08.138Z,7.90
2022-10-21T18:15:11.193Z,7.27
2022-10-21T18:20:15.706Z,7.23
2022-10-21T18:25:18.453Z,6.97
2022-10-21T18:30:21.245Z,7.67
2022-10-21T18:35:24.939Z,7.80
2022-10-21T18:40:28.770Z,8.00
2022-10-21T18:45:31.453Z,7.03
2022-10-21T18:50:38.000Z,7.40
2022-10-21T18:55:41.165Z,8.20
2022-10-21T19:00:43.887Z,7.40
2022-10-21T19:05:46.607Z,7.07
2022-10-21T19:10:56.663Z,8.23
2022-10-21T19:16:22.437Z,7.67
2022-10-21T19:21:41.430Z,8.07
2022-10-21T19:27:04.934Z,8.33
2022-10-21T19:32:32.307Z,7.73
2022-10-21T19:37:55.010Z,9.13
2022-10-21T19:43:10.095Z,9.17
2022-10-21T19:48:33.335Z,8.57
2022-10-21T19:53:52.579Z,9.57
2022-10-21T19:59:01.957Z,7.33
2022-10-21T20:04:17.936Z,8.30
2022-10-21T20:09:20.883Z,9.20
2022-10-21T20:14:23.642Z,9.13
2022-10-21T20:19:26.416Z,9.13
2022-10-21T20:24:29.137Z,8.73
2022-10-21T20:29:31.834Z,8.27
2022-10-21T20:34:37.490Z,8.27
2022-10-21T20:39:40.472Z,8.13
2022-10-21T20:44:43.253Z,8.27
2022-10-21T20:49:46.002Z,8.00
2022-10-21T20:54:51.218Z,8.00
2022-10-21T20:59:53.964Z,7.60
2022-10-21T21:05:09.285Z,7.60
2022-10-21T21:10:28.220Z,7.80
2022-10-21T21:15:31.119Z,7.70
2022-10-21T21:20:33.825Z,7.97
2022-10-21T21:25:36.527Z,8.10
2022-10-21T21:30:39.228Z,7.87
2022-10-21T21:35:41.908Z,7.77
2022-10-21T21:40:53.637Z,8.03
2022-10-21T21:46:32.371Z,7.27
2022-10-21T21:51:54.900Z,6.70
2022-10-21T21:57:26.829Z,6.70
2022-10-21T22:02:49.617Z,6.40
2022-10-21T22:08:02.960Z,6.50
2022-10-21T22:13:46.621Z,7.00
2022-10-21T22:19:07.294Z,6.77
2022-10-21T22:29:40.873Z,6.57
2022-10-21T22:34:43.941Z,6.20
2022-10-21T22:39:46.540Z,6.03
2022-10-21T22:44:49.242Z,6.73
2022-10-21T22:49:52.234Z,6.70
2022-10-21T22:54:55.029Z,6.30
2022-10-21T22:59:57.729Z,6.63
2022-10-21T23:05:17.631Z,6.37
2022-10-21T23:10:25.749Z,6.63
2022-10-21T23:15:28.451Z,7.00
2022-10-21T23:20:31.678Z,7.27
2022-10-21T23:25:35.752Z,6.70
2022-10-21T23:30:38.809Z,6.93
2022-10-21T23:35:41.477Z,6.40
2022-10-21T23:40:44.579Z,6.97
2022-10-21T23:46:03.763Z,6.70
2022-10-21T23:51:20.322Z,6.67
2022-10-21T23:56:42.608Z,6.70
